Dakin Peak, Santa Catalina Island Weather observations

Data are for 10 minute period ending at time listed.
 Day   Time   Solar   Ave.   Ave.  Ave.  Vector    Max.   Stn.    Total
  of    of     Rad.   Air    Rel.  Wind   Wind     Wind   Baro.  Precip.
Year   Day            Temp.  Hum.  Speed  Dir.     Gust   Pres.         
2014   (PST)   W/m2    F      %     mph   deg.      mph    mb.     in.  
------------------------------------------------------------------------
 327   17:50    0.0    66   23.9    16    287.1    20.3    999.0   0.00  
 327   18:00    0.0    66   21.3    16    296.4    22.7    999.0   0.00  
 327   18:10    0.0    67   20.2    14    304.8    19.1    999.0   0.00  
 327   18:20    0.0    67   20.0    14    304.8    19.1    999.0   0.00  
 327   18:30    0.0    66   21.1    13    299.7    17.9    999.0   0.00  
 327   18:40    0.0    66   21.0    11    302.3    14.9    999.0   0.00  
 327   18:50    0.0    66   21.4    11    306.3    13.7    999.0   0.00  
 327   19:00    0.0    66   21.6    10    306.3    11.9    999.0   0.00  
 327   19:10    0.0    66   21.5     8    303.2    10.2    999.0   0.00  
 327   19:20    0.0    66   21.3     8    302.5     9.6    999.0   0.00  
 327   19:30    0.0    66   20.8     9    309.1    11.3    999.0   0.00  
 327   19:40    0.0    66   20.6    10    317.5    12.5    999.0   0.00  
 327   19:50    0.0    66   21.0    11    319.5    13.1    999.0   0.00  
 327   20:00    0.0    66   20.6    10    323.3    13.1    999.0   0.00  
 327   20:10    0.0    66   19.4    10    318.3    12.5    999.0   0.00  
 327   20:20    0.0    67   17.7    10    321.1    11.9    999.0   0.00  
 327   20:30    0.0    67   17.1    10    325.1    13.7    999.0   0.00  
 327   20:40    0.0    67   18.2     9    336.6    11.9    999.0   0.00  
 327   20:50    0.0    67   17.7     8    335.0    12.5    999.0   0.00  
 327   21:00    0.0    67   17.4     9      3.3    13.7    999.0   0.00  
 327   21:10    0.0    66   18.2     8      1.7    11.3    999.0   0.00  
 327   21:20    0.0    66   19.2     8      0.1    11.9    999.0   0.00  
 327   21:30    0.0    66   18.9     8    359.7    10.8    999.0   0.00  
 327   21:40    0.0    66   19.3     8    346.4    11.3    999.0   0.00  
 327   21:50    0.0    66   16.7     7    347.8    11.3    999.0   0.00  
 327   22:00    0.0    67   15.5     7    335.9     9.0    999.0   0.00  
 327   22:10    0.0    67   14.1     7    341.4    10.8    999.0   0.00  
 327   22:20    0.0    67   13.5     6    333.1     7.8    999.0   0.00  
 327   22:30    0.0    67   13.3     5    336.8     7.2    999.0   0.00  
 327   22:40    0.0    67   12.8     3     30.0     7.2    999.0   0.00  
 327   22:50    0.0    67   14.1     5     41.9     7.8    999.0   0.00  
 327   23:00    0.0    67   14.7     5     49.7     7.2    999.0   0.00  
 327   23:10    0.0    67   15.3     5     51.0     6.6    999.0   0.00  
 327   23:20    0.0    66   16.5     4     18.5     6.0    999.0   0.00  
 327   23:30    0.0    66   17.2     4     16.0     6.0    999.0   0.00  
 327   23:40    0.0    66   18.0     5    343.8     6.0    999.0   0.00  
 327   23:50    0.0    65   18.9     6    328.5     6.6    999.0   0.00  
 328    0:00    0.0    65   19.4     5    337.7     6.6    999.0   0.00  
 328    0:10    0.0    65   19.4     4    356.2     5.4    999.0   0.00  
 328    0:20    0.0    65   19.8     2     16.6     4.2    999.0   0.00  
 328    0:30    0.0    66   21.1     4     22.4     5.4    999.0   0.00  
 328    0:40    0.0    65   20.9     4      2.2     4.8    999.0   0.00  
 328    0:50    0.0    65   20.7     5    352.3     6.0    999.0   0.00  
 328    1:00    0.0    64   21.3     4     11.8     5.4    999.0   0.00  
 328    1:10    0.0    64   21.3     3     20.1     4.2    999.0   0.00  
 328    1:20    0.0    64   22.1     3      3.9     4.2    999.0   0.00  
 328    1:30    0.0    65   22.5     3     39.9     4.2    999.0   0.00  
 328    1:40    0.0    65   22.0     3    335.1     4.2    999.0   0.00  
 328    1:50    0.0    64   22.5     5    326.8     6.0    999.0   0.00  
 328    2:00    0.0    63   25.5     6    320.2     6.6    999.0   0.00  
 328    2:10    0.0    60   33.7     7    303.6     7.8    999.0   0.00  
 328    2:20    0.0    60   33.5     6    286.6     7.2    999.0   0.00  
 328    2:30    0.0    62   23.5     6    307.2     7.8    999.0   0.00  
 328    2:40    0.0    62   22.7     6    300.2     7.2    999.0   0.00  
 328    2:50    0.0    64   19.2     6    296.3     6.6    999.0   0.00  
 328    3:00    0.0    63   19.2     5    283.4     6.6    999.0   0.00  
 328    3:10    0.0    64   18.2     8    282.5     9.6    999.0   0.00  
 328    3:20    0.0    64   17.1    10    285.6    10.8    999.0   0.00  
 328    3:30    0.0    64   15.9    10    283.2    11.3    999.0   0.00  
 328    3:40    0.0    64   14.9    11    282.8    14.9    999.0   0.00  
 328    3:50    0.0    64   14.6    11    283.5    13.7    999.0   0.00  
 328    4:00    0.0    64   15.0    10    290.5    14.3    999.0   0.00  
 328    4:10    0.0    63   15.6     9    299.6    10.8    999.0   0.00  
 328    4:20    0.0    63   16.1     9    299.2    11.3    999.0   0.00  
 328    4:30    0.0    63   16.9    10    304.1    12.5    999.0   0.00  
 328    4:40    0.0    62   18.1    10    294.3    11.9    999.0   0.00  
 328    4:50    0.0    62   18.7    10    298.3    12.5    999.0   0.00  
 328    5:00    0.0    62   19.9    12    287.9    18.5    999.0   0.00  
 328    5:10    0.0    62   21.2    15    288.2    19.1    999.0   0.00  
 328    5:20    0.0    62   20.1    14    291.3    22.1    999.0   0.00  
 328    5:30    0.0    62   19.1    13    291.6    16.1    999.0   0.00  
 328    5:40    0.0    63   17.4    12    293.6    15.5    999.0   0.00  
 328    5:50    0.0    63   17.1    11    304.2    13.7    999.0   0.00  
 328    6:00    0.0    63   17.4    11    310.5    13.7    999.0   0.00  
 328    6:10    0.0    62   18.3    11    294.9    13.7    999.0   0.00  
 328    6:20    0.0    62   18.6    12    304.4    14.9    999.0   0.00  
 328    6:30    2.0    62   18.4    12    304.4    13.1    999.0   0.00  
 328    6:40    4.0    62   19.0    12    310.2    14.3    999.0   0.00  
 328    6:50    9.0    62   19.2    11    320.0    14.9    999.0   0.00  
 328    7:00   27.0    62   21.1    10    336.1    14.3    999.0   0.00  
 328    7:10   55.0    62   22.4    10    341.4    15.5    999.0   0.00  
 328    7:20   83.0    62   24.9    10    339.6    15.5    999.0   0.00  
 328    7:30  115.0    62   26.3    11    342.3    14.3    999.0   0.00  
 328    7:40   76.0    61   30.5    12    349.5    16.1    999.0   0.00  
 328    7:50  166.0    61   31.8    11    346.4    13.7    999.0   0.00  
 328    8:00  179.0    62   29.7    11    352.4    16.1    999.0   0.00  
 328    8:10  211.0    62   26.9    11    357.4    15.5    999.0   0.00  
 328    8:20  240.0    62   24.9    11    354.0    15.5    999.0   0.00  
 328    8:30  237.0    63   21.6     9    356.5    15.5    999.0   0.00  
 328    8:40  275.0    63   20.4    10    351.8    14.9    999.0   0.00  
 328    8:50  300.0    64   19.6    10    353.6    14.9    999.0   0.00  
 328    9:00  327.0    64   19.4     9    352.9    12.5    999.0   0.00  
 328    9:10  348.0    64   19.4    10    349.5    17.9    999.0   0.00  
 328    9:20  352.0    64   20.8    11    356.4    17.3    999.0   0.00  
 328    9:30  370.0    63   21.9    12    357.0    16.1    999.0   0.00  
 328    9:40  380.0    63   25.2    13    355.3    17.9    999.0   0.00  
 328    9:50  405.0    63   32.9    11    357.1    14.9    999.0   0.00  
 328   10:00  418.0    62   32.3    11    359.2    14.3    999.0   0.00  
 328   10:10  427.0    62   34.8     9      2.3    12.5    999.0   0.00  
 328   10:20  439.0    63   35.4     7      5.9    10.2    999.0   0.00  
 328   10:30  454.0    67   25.7     8     53.9    11.9    999.0   0.00  
 328   10:40  466.0    67   27.4     9     71.7    12.5    999.0   0.00  
 328   10:50  470.0    67   27.6    10     93.1    15.5    999.0   0.00  
 328   11:00  486.0    68   25.9    10     88.2    17.3    999.0   0.00  
 328   11:10  471.0    69   21.2    12     96.7    18.5    999.0   0.00  
 328   11:20  479.0    69   19.9    12     97.0    18.5    999.0   0.00  
 328   11:30  501.0    70   19.4    11     94.1    14.9    999.0   0.00  
 328   11:40  515.0    70   18.0     9     92.3    13.1    999.0   0.00  
 328   11:50  498.0    70   17.1     8     67.3    11.3    999.0   0.00  
 328   12:00  496.0    71   16.2     8     69.4    11.3    999.0   0.00  
 328   12:10  487.0    71   14.8     9     83.9    11.3    999.0   0.00  
 328   12:20  491.0    71   14.6     8     88.1    10.8    999.0   0.00  
 328   12:30  485.0    71   14.2     6     85.9    10.2    999.0   0.00  
 328   12:40  476.0    71   14.1     6     86.9     9.6    999.0   0.00  
 328   12:50  469.0    71   13.2     7     86.7    13.1    999.0   0.00  
 328   13:00  410.0    72   12.9     7     73.6    10.8    999.0   0.00  
 328   13:10  450.0    72   12.6     7     85.1    11.3    999.0   0.00  
 328   13:20  438.0    72   12.5     8     90.1    11.3    999.0   0.00  
 328   13:30  425.0    72   12.7     5     61.2     9.6    999.0   0.00  
 328   13:40  409.0    71   13.1     5     45.8     8.4    999.0   0.00  
 328   13:50  393.0    71   13.7     4     18.6     7.2    999.0   0.00  
 328   14:00  376.0    70   13.6     4    342.6     6.6    999.0   0.00  
 328   14:10  292.0    71   13.7     4    354.1     6.6    999.0   0.00  
 328   14:20  130.0    70   14.0     4    358.4     6.0    999.0   0.00  
 328   14:30  109.0    71   14.0     6     45.2     9.0    999.0   0.00  
 328   14:40  294.0    71   14.6     6     42.7     8.4    999.0   0.00  
 328   14:50  273.0    71   14.4     5     38.0     7.8    999.0   0.00  
 328   15:00  250.0    71   14.6     4     19.3     6.0    999.0   0.00  
 328   15:10  227.0    71   14.4     4      8.7     6.6    999.0   0.00  
 328   15:20  203.0    71   14.6     5      9.6     7.8    999.0   0.00  
 328   15:30  179.0    70   15.1     6    359.7     7.8    999.0   0.00  
 328   15:40  154.0    70   15.0     6      4.8     7.8    999.0   0.00  
 328   15:50  130.0    70   14.8     6    334.4     7.8    999.0   0.00  
 328   16:00  107.0    69   14.9     7    335.7     9.0    999.0   0.00  
 328   16:10   81.0    69   14.9     7    348.3    10.2    999.0   0.00  
 328   16:20   52.0    69   15.4     9    347.9    12.5    999.0   0.00  
 328   16:30   31.0    69   16.8     9     12.8    12.5    999.0   0.00  
 328   16:40   15.0    68   18.2    10     23.5    13.7    999.0   0.00  
 328   16:50    6.0    68   18.9    11     35.2    16.7    999.0   0.00  
 328   17:00    2.0    68   19.9    10     29.1    14.9    999.0   0.00  
 328   17:10    0.0    67   20.2    12     46.0    16.7    999.0   0.00  
 328   17:20    0.0    68   19.8    12     58.2    18.5    999.0   0.00  
 328   17:30    0.0    68   19.8    12     64.0    19.7    999.0   0.00  
 328   17:40    0.0    67   20.4    11     66.0    16.7    999.0   0.00  

Return to Dakin Peak graphs page.


Western Regional Climate Center,wrcc@dri.edu